createdAt,value
2018-02-20T00:00:39.402Z,101454.25
2018-02-20T00:03:05.202Z,101451.55
2018-02-20T00:05:31.010Z,101451.61
2018-02-20T00:07:56.839Z,101452.50
2018-02-20T00:10:22.644Z,101452.39
2018-02-20T00:12:48.447Z,101449.86
2018-02-20T00:15:14.246Z,101454.81
2018-02-20T00:17:40.075Z,101444.81
2018-02-20T00:20:05.887Z,101451.73
2018-02-20T00:22:31.727Z,101445.17
2018-02-20T00:24:57.512Z,101450.91
2018-02-20T00:27:23.349Z,101447.39
2018-02-20T00:29:49.183Z,101445.48
2018-02-20T00:32:14.990Z,101443.31
2018-02-20T00:34:40.774Z,101440.31
2018-02-20T00:37:06.569Z,101443.63
2018-02-20T00:39:32.390Z,101446.96
2018-02-20T00:41:58.199Z,101449.97
2018-02-20T00:44:23.989Z,101451.42
2018-02-20T00:46:49.780Z,101446.64
2018-02-20T00:49:15.568Z,101447.55
2018-02-20T00:51:41.346Z,101445.36
2018-02-20T00:54:07.134Z,101448.45
2018-02-20T00:56:32.975Z,101445.95
2018-02-20T00:58:58.766Z,101452.16
2018-02-20T01:01:24.564Z,101455.83
2018-02-20T01:03:50.354Z,101449.52
2018-02-20T01:06:16.167Z,101459.30
2018-02-20T01:08:41.975Z,101454.31
2018-02-20T01:11:07.768Z,101454.17
2018-02-20T01:13:33.619Z,101453.61
2018-02-20T01:15:59.433Z,101453.02
2018-02-20T01:18:25.238Z,101452.30
2018-02-20T01:20:51.046Z,101450.27
2018-02-20T01:23:16.836Z,101452.88
2018-02-20T01:25:42.678Z,101456.11
2018-02-20T01:28:08.476Z,101451.08
2018-02-20T01:30:34.261Z,101455.31
2018-02-20T01:33:00.043Z,101450.91
2018-02-20T01:35:25.833Z,101455.36
2018-02-20T01:37:51.622Z,101451.75
2018-02-20T01:40:17.422Z,101446.70
2018-02-20T01:42:43.225Z,101451.42
2018-02-20T01:45:09.026Z,101451.89
2018-02-20T01:47:34.827Z,101447.45
2018-02-20T01:50:00.614Z,101456.66
2018-02-20T01:52:26.408Z,101455.77
2018-02-20T01:54:52.195Z,101451.84
2018-02-20T01:57:18.031Z,101454.84
2018-02-20T01:59:43.825Z,101450.58
2018-02-20T02:02:09.649Z,101455.42
2018-02-20T02:04:35.443Z,101459.01
2018-02-20T02:07:01.396Z,101452.92
2018-02-20T02:09:27.231Z,101456.33
2018-02-20T02:11:53.024Z,101448.12
2018-02-20T02:14:18.859Z,101453.28
2018-02-20T02:16:44.663Z,101452.25
2018-02-20T02:19:10.483Z,101446.43
2018-02-20T02:21:36.291Z,101446.07
2018-02-20T02:24:02.134Z,101444.83
2018-02-20T02:26:27.931Z,101446.00
2018-02-20T02:28:53.781Z,101442.70
2018-02-20T02:31:19.580Z,101437.95
2018-02-20T02:33:45.408Z,101439.88
2018-02-20T02:36:11.205Z,101439.50
2018-02-20T02:38:37.901Z,101440.59
2018-02-20T02:41:04.545Z,101442.88
2018-02-20T02:43:30.381Z,101440.45
2018-02-20T02:45:56.785Z,101440.30
2018-02-20T02:48:22.574Z,101438.77
2018-02-20T02:50:49.394Z,101442.19
2018-02-20T02:53:16.087Z,101439.77
2018-02-20T02:55:42.819Z,101436.67
2018-02-20T02:58:08.614Z,101437.99
2018-02-20T03:00:34.425Z,101438.20
2018-02-20T03:03:01.163Z,101432.10
2018-02-20T03:05:26.993Z,101433.17
2018-02-20T03:07:53.724Z,101442.58
2018-02-20T03:10:19.526Z,101436.05
2018-02-20T03:12:46.177Z,101429.98
2018-02-20T03:15:12.950Z,101437.63
2018-02-20T03:17:39.667Z,101433.69
2018-02-20T03:20:06.429Z,101436.23
2018-02-20T03:22:33.188Z,101435.91
2018-02-20T03:24:58.974Z,101430.41
2018-02-20T03:27:24.802Z,101431.09
2018-02-20T03:29:51.566Z,101430.95
2018-02-20T03:32:18.222Z,101429.22
2018-02-20T03:34:44.059Z,101425.48
2018-02-20T03:37:10.841Z,101432.42
2018-02-20T03:39:36.696Z,101428.77
2018-02-20T03:42:02.494Z,101432.52
2018-02-20T03:44:29.231Z,101431.13
2018-02-20T03:46:55.084Z,101433.46
2018-02-20T03:49:21.714Z,101428.50
2018-02-20T03:51:47.502Z,101425.70
2018-02-20T03:54:14.310Z,101426.52
2018-02-20T03:56:41.074Z,101423.84
2018-02-20T03:59:07.653Z,101420.71
2018-02-20T04:01:33.474Z,101421.73
2018-02-20T04:03:59.254Z,101425.70
2018-02-20T04:06:25.055Z,101426.83
2018-02-20T04:08:50.883Z,101425.92
2018-02-20T04:11:16.668Z,101430.39
2018-02-20T04:13:42.467Z,101429.89
2018-02-20T04:16:08.253Z,101432.06
2018-02-20T04:18:34.054Z,101433.28
2018-02-20T04:20:59.845Z,101431.91
2018-02-20T04:23:25.649Z,101436.73
2018-02-20T04:25:51.451Z,101436.38
2018-02-20T04:28:18.281Z,101440.26
2018-02-20T04:30:44.106Z,101430.33
2018-02-20T04:33:09.955Z,101435.47
2018-02-20T04:35:36.732Z,101429.64
2018-02-20T04:38:03.490Z,101425.89
2018-02-20T04:40:29.270Z,101428.80
2018-02-20T04:42:55.095Z,101425.99
2018-02-20T04:45:21.000Z,101426.81
2018-02-20T04:47:46.834Z,101429.15
2018-02-20T04:50:12.629Z,101423.89
2018-02-20T04:52:38.424Z,101430.36
2018-02-20T04:55:04.214Z,101426.46
2018-02-20T04:57:30.007Z,101424.08
2018-02-20T04:59:55.832Z,101427.48
2018-02-20T05:02:21.621Z,101427.94
2018-02-20T05:04:47.441Z,101426.63
2018-02-20T05:07:13.237Z,101437.05
2018-02-20T05:09:39.035Z,101435.50
2018-02-20T05:12:04.828Z,101437.45
2018-02-20T05:14:30.668Z,101436.91
2018-02-20T05:16:57.286Z,101434.42
2018-02-20T05:19:23.101Z,101436.83
2018-02-20T05:21:49.742Z,101432.34
2018-02-20T05:24:15.533Z,101433.39
2018-02-20T05:26:42.177Z,101435.25
2018-02-20T05:29:07.999Z,101433.89
2018-02-20T05:31:33.837Z,101442.58
2018-02-20T05:34:00.581Z,101443.80
2018-02-20T05:36:26.369Z,101446.89
2018-02-20T05:38:53.141Z,101444.75
2018-02-20T05:41:18.935Z,101449.24
2018-02-20T05:43:45.764Z,101455.48
2018-02-20T05:46:12.378Z,101456.94
2018-02-20T05:48:38.175Z,101453.98
2018-02-20T05:51:04.989Z,101458.94
2018-02-20T05:53:31.745Z,101462.47
2018-02-20T05:56:01.413Z,101462.93
2018-02-20T05:58:28.053Z,101464.68
2018-02-20T06:00:55.973Z,101461.30
2018-02-20T06:03:22.875Z,101461.39
2018-02-20T06:05:50.647Z,101461.81
2018-02-20T06:08:16.571Z,101464.34
2018-02-20T06:10:42.455Z,101465.66
2018-02-20T06:13:08.386Z,101468.56
2018-02-20T06:15:34.337Z,101471.23
2018-02-20T06:18:01.177Z,101465.83
2018-02-20T06:20:28.915Z,101463.77
2018-02-20T06:22:54.776Z,101474.31
2018-02-20T06:25:20.681Z,101475.00
2018-02-20T06:27:46.508Z,101477.23
2018-02-20T06:30:12.374Z,101477.17
2018-02-20T06:32:38.177Z,101473.02
2018-02-20T06:35:03.997Z,101472.07
2018-02-20T06:37:29.791Z,101472.18
2018-02-20T06:39:56.464Z,101477.89
2018-02-20T06:42:22.254Z,101472.73
2018-02-20T06:44:48.962Z,101481.05
2018-02-20T06:47:15.743Z,101484.75
2018-02-20T06:49:42.597Z,101480.73
2018-02-20T06:52:09.311Z,101484.75
2018-02-20T06:54:36.082Z,101482.05
2018-02-20T06:57:02.832Z,101482.54
2018-02-20T06:59:28.665Z,101478.84
2018-02-20T07:01:54.498Z,101483.34
2018-02-20T07:04:21.120Z,101480.04
2018-02-20T07:06:47.007Z,101481.88
2018-02-20T07:09:12.994Z,101485.30
2018-02-20T07:11:39.715Z,101486.09
2018-02-20T07:14:06.551Z,101486.98
2018-02-20T07:16:33.398Z,101487.13
2018-02-20T07:19:00.174Z,101488.86
2018-02-20T07:21:26.986Z,101491.67
2018-02-20T07:23:53.645Z,101494.39
2018-02-20T07:26:20.399Z,101499.95
2018-02-20T07:28:47.034Z,101495.52
2018-02-20T07:31:13.764Z,101505.69
2018-02-20T07:33:40.572Z,101503.40
2018-02-20T07:36:06.410Z,101504.08
2018-02-20T07:38:32.205Z,101514.63
2018-02-20T07:40:58.007Z,101514.12
2018-02-20T07:43:24.771Z,101515.00
2018-02-20T07:45:50.578Z,101509.84
2018-02-20T07:48:16.390Z,101515.51
2018-02-20T07:50:42.197Z,101507.52
2018-02-20T07:53:07.997Z,101512.66
2018-02-20T07:55:33.790Z,101506.98
2018-02-20T07:57:59.592Z,101505.00
2018-02-20T08:00:26.365Z,101505.74
2018-02-20T08:02:52.159Z,101507.95
2018-02-20T08:05:18.001Z,101515.75
2018-02-20T08:07:43.801Z,101513.81
2018-02-20T08:10:09.748Z,101517.37
2018-02-20T08:12:36.658Z,101519.84
2018-02-20T08:15:02.446Z,101515.64
2018-02-20T08:17:28.301Z,101521.19
2018-02-20T08:19:54.080Z,101520.11
2018-02-20T08:22:19.907Z,101525.50
2018-02-20T08:24:45.702Z,101524.27
2018-02-20T08:27:11.495Z,101529.87
2018-02-20T08:29:38.182Z,101521.30
2018-02-20T08:32:04.021Z,101527.61
2018-02-20T08:34:29.801Z,101529.30
2018-02-20T08:36:55.598Z,101532.45
2018-02-20T08:39:21.392Z,101526.30
2018-02-20T08:41:47.978Z,101529.81
2018-02-20T08:44:14.787Z,101527.89
2018-02-20T08:46:40.577Z,101523.75
2018-02-20T08:49:06.365Z,101526.47
2018-02-20T08:51:32.164Z,101520.69
2018-02-20T08:53:57.951Z,101523.23
2018-02-20T08:56:24.670Z,101517.30
2018-02-20T08:58:50.470Z,101515.31
2018-02-20T09:01:16.319Z,101509.89
2018-02-20T09:03:42.116Z,101511.31
2018-02-20T09:06:07.963Z,101511.04
2018-02-20T09:08:33.783Z,101501.39
2018-02-20T09:11:00.403Z,101501.18
2018-02-20T09:13:26.244Z,101502.52
2018-02-20T09:15:52.026Z,101500.53
2018-02-20T09:18:17.866Z,101497.46
2018-02-20T09:20:43.698Z,101495.56
2018-02-20T09:23:09.620Z,101496.31
2018-02-20T09:25:35.461Z,101494.96
2018-02-20T09:28:01.255Z,101493.66
2018-02-20T09:30:27.092Z,101492.21
2018-02-20T09:32:52.882Z,101491.27
2018-02-20T09:35:18.675Z,101492.58
2018-02-20T09:37:44.482Z,101496.42
2018-02-20T09:40:10.290Z,101497.69
2018-02-20T09:42:36.127Z,101502.89
2018-02-20T09:45:01.931Z,101495.38
2018-02-20T09:47:27.766Z,101498.42
2018-02-20T09:49:53.638Z,101498.44
2018-02-20T09:52:20.320Z,101496.56
2018-02-20T09:54:46.153Z,101497.34
2018-02-20T09:57:11.967Z,101497.48
2018-02-20T09:59:38.715Z,101498.84
2018-02-20T10:02:05.584Z,101501.09
2018-02-20T10:04:31.366Z,101501.58
2018-02-20T10:06:58.122Z,101503.31
2018-02-20T10:09:24.737Z,101500.08
2018-02-20T10:11:51.465Z,101497.16
2018-02-20T10:14:17.390Z,101499.58
2018-02-20T10:16:43.190Z,101502.12
2018-02-20T10:19:09.036Z,101498.99
2018-02-20T10:21:35.769Z,101508.77
2018-02-20T10:24:01.566Z,101507.10
2018-02-20T10:26:27.399Z,101506.92
2018-02-20T10:28:54.142Z,101502.73
2018-02-20T10:31:20.855Z,101498.22
2018-02-20T10:33:46.655Z,101502.77
2018-02-20T10:36:13.478Z,101496.41
2018-02-20T10:41:11.818Z,101501.47
2018-02-20T10:43:37.644Z,101499.53
2018-02-20T10:46:04.478Z,101497.02
2018-02-20T10:48:31.087Z,101499.38
2018-02-20T10:50:56.909Z,101502.52
2018-02-20T10:53:22.734Z,101500.94
2018-02-20T10:55:49.435Z,101504.19
2018-02-20T10:58:16.262Z,101496.63
2018-02-20T11:00:43.001Z,101501.31
2018-02-20T11:03:08.818Z,101496.33
2018-02-20T11:05:34.643Z,101504.87
2018-02-20T11:08:01.376Z,101498.28
2018-02-20T11:10:27.203Z,101499.84
2018-02-20T11:12:53.989Z,101491.39
2018-02-20T11:15:19.804Z,101496.97
2018-02-20T11:17:45.671Z,101501.52
2018-02-20T11:20:12.402Z,101496.12
2018-02-20T11:22:38.221Z,101491.33
2018-02-20T11:25:04.033Z,101500.61
2018-02-20T11:27:29.863Z,101492.30
2018-02-20T11:29:55.687Z,101493.94
2018-02-20T11:32:22.452Z,101495.68
2018-02-20T11:34:49.218Z,101489.67
2018-02-20T11:37:15.051Z,101496.57
2018-02-20T11:39:40.916Z,101490.05
2018-02-20T11:42:06.740Z,101491.40
2018-02-20T11:44:32.556Z,101491.20
2018-02-20T11:46:58.371Z,101480.14
2018-02-20T11:49:24.197Z,101485.44
2018-02-20T11:51:50.031Z,101481.30
2018-02-20T11:54:15.841Z,101478.38
2018-02-20T11:56:41.656Z,101471.61
2018-02-20T11:59:07.488Z,101473.70
2018-02-20T12:01:34.387Z,101470.53
2018-02-20T12:04:00.211Z,101470.95
2018-02-20T12:06:26.080Z,101466.09
2018-02-20T12:08:51.929Z,101462.98
2018-02-20T12:11:17.755Z,101466.53
2018-02-20T12:13:43.572Z,101467.98
2018-02-20T12:16:10.311Z,101471.90
2018-02-20T12:18:36.139Z,101465.20
2018-02-20T12:21:01.954Z,101459.20
2018-02-20T12:23:27.813Z,101462.26
2018-02-20T12:25:53.681Z,101457.55
2018-02-20T12:28:20.387Z,101460.91
2018-02-20T12:30:46.209Z,101459.66
2018-02-20T12:33:12.062Z,101456.09
2018-02-20T12:35:37.877Z,101454.31
2018-02-20T12:38:04.207Z,101451.58
2018-02-20T12:40:30.023Z,101457.59
2018-02-20T12:42:56.845Z,101461.69
2018-02-20T12:45:23.482Z,101461.34
2018-02-20T12:47:50.139Z,101461.94
2018-02-20T12:50:15.981Z,101454.22
2018-02-20T12:52:42.710Z,101458.60
2018-02-20T12:55:09.421Z,101463.84
2018-02-20T12:57:36.197Z,101462.91
2018-02-20T13:00:02.964Z,101470.15
2018-02-20T13:02:29.748Z,101458.47
2018-02-20T13:04:56.501Z,101470.41
2018-02-20T13:07:22.316Z,101462.59
2018-02-20T13:09:49.029Z,101460.58
2018-02-20T13:12:15.690Z,101463.11
2018-02-20T13:14:41.605Z,101467.77
2018-02-20T13:17:08.289Z,101465.23
2018-02-20T13:19:35.034Z,101470.23
2018-02-20T13:22:01.677Z,101466.98
2018-02-20T13:24:27.506Z,101464.01
2018-02-20T13:26:54.153Z,101468.64
2018-02-20T13:29:19.962Z,101468.54
2018-02-20T13:31:45.788Z,101470.86
2018-02-20T13:34:11.605Z,101475.20
2018-02-20T13:36:37.423Z,101469.22
2018-02-20T13:39:04.216Z,101474.53
2018-02-20T13:41:30.073Z,101468.85
2018-02-20T13:43:56.910Z,101473.14
2018-02-20T13:46:22.778Z,101476.64
2018-02-20T13:48:48.602Z,101475.02
2018-02-20T13:51:14.459Z,101473.33
2018-02-20T13:53:41.141Z,101477.95
2018-02-20T13:56:07.919Z,101478.75
2018-02-20T13:58:34.717Z,101478.48
2018-02-20T14:01:01.535Z,101484.44
2018-02-20T14:03:28.414Z,101486.38
2018-02-20T14:05:55.190Z,101487.16
2018-02-20T14:08:21.962Z,101488.69
2018-02-20T14:10:48.785Z,101490.05
2018-02-20T14:13:14.606Z,101490.59
2018-02-20T14:15:41.329Z,101498.08
2018-02-20T14:18:08.029Z,101488.94
2018-02-20T14:20:34.866Z,101482.48
2018-02-20T14:23:01.737Z,101487.26
2018-02-20T14:25:27.651Z,101486.84
2018-02-20T14:27:54.394Z,101481.05
2018-02-20T14:30:21.137Z,101486.52
2018-02-20T14:32:47.944Z,101488.36
2018-02-20T14:35:13.825Z,101483.09
2018-02-20T14:37:40.633Z,101484.48
2018-02-20T14:40:07.416Z,101484.70
2018-02-20T14:42:34.177Z,101480.42
2018-02-20T14:45:00.132Z,101471.64
2018-02-20T14:47:25.954Z,101478.28
2018-02-20T14:49:52.930Z,101484.48
2018-02-20T14:52:19.721Z,101486.02
2018-02-20T14:54:45.594Z,101481.64
2018-02-20T14:57:11.436Z,101480.21
2018-02-20T14:59:37.427Z,101482.80
2018-02-20T15:02:03.255Z,101487.05
2018-02-20T15:04:29.461Z,101484.42
2018-02-20T15:06:55.425Z,101487.54
2018-02-20T15:09:22.254Z,101487.28
2018-02-20T15:11:48.089Z,101493.91
2018-02-20T15:14:13.922Z,101487.63
2018-02-20T15:16:39.737Z,101491.00
2018-02-20T15:19:05.603Z,101492.33
2018-02-20T15:21:31.423Z,101477.16
2018-02-20T15:23:57.293Z,101489.36
2018-02-20T15:26:24.017Z,101488.32
2018-02-20T15:28:49.869Z,101498.73
2018-02-20T15:31:15.697Z,101506.73
2018-02-20T15:33:41.547Z,101504.55
2018-02-20T15:36:07.394Z,101516.61
2018-02-20T15:38:33.234Z,101513.17
2018-02-20T15:40:59.094Z,101514.30
2018-02-20T15:43:24.946Z,101517.11
2018-02-20T15:45:50.982Z,101521.59
2018-02-20T15:48:17.282Z,101526.06
2018-02-20T15:50:43.542Z,101530.38
2018-02-20T15:53:09.505Z,101528.34
2018-02-20T15:55:35.343Z,101533.77
2018-02-20T15:58:01.269Z,101527.16
2018-02-20T16:00:27.148Z,101540.75
2018-02-20T16:02:52.983Z,101536.47
2018-02-20T16:05:18.867Z,101542.64
2018-02-20T16:07:44.870Z,101545.17
2018-02-20T16:10:11.050Z,101539.41
2018-02-20T16:12:37.491Z,101542.77
2018-02-20T16:15:03.579Z,101544.91
2018-02-20T16:17:32.281Z,101544.95
2018-02-20T16:19:59.702Z,101553.53
2018-02-20T16:22:25.813Z,101553.31
2018-02-20T16:24:52.629Z,101553.61
2018-02-20T16:27:18.459Z,101553.58
2018-02-20T16:29:44.387Z,101556.80
2018-02-20T16:32:11.078Z,101566.77
2018-02-20T16:34:37.906Z,101563.61
2018-02-20T16:37:04.638Z,101568.56
2018-02-20T16:39:30.554Z,101570.40
2018-02-20T16:41:56.753Z,101571.69
2018-02-20T16:44:37.654Z,101573.37
2018-02-20T16:47:03.726Z,101578.05
2018-02-20T16:49:30.904Z,101578.36
2018-02-20T16:51:57.156Z,101581.48
2018-02-20T16:54:23.310Z,101582.73
2018-02-20T16:56:53.171Z,101589.87
2018-02-20T16:59:19.646Z,101590.84
2018-02-20T17:01:46.671Z,101586.91
2018-02-20T17:04:12.926Z,101593.23
2018-02-20T17:06:41.054Z,101594.84
2018-02-20T17:09:07.530Z,101589.96
2018-02-20T17:11:34.520Z,101588.22
2018-02-20T17:14:01.808Z,101592.68
2018-02-20T17:16:29.277Z,101599.91
2018-02-20T17:18:56.504Z,101597.65
2018-02-20T17:21:23.508Z,101603.23
2018-02-20T17:23:49.838Z,101598.87
2018-02-20T17:26:17.314Z,101604.23
2018-02-20T17:28:44.718Z,101605.20
2018-02-20T17:31:11.127Z,101613.19
2018-02-20T17:33:37.495Z,101624.30
2018-02-20T17:36:06.377Z,101623.69
2018-02-20T17:38:33.122Z,101621.90
2018-02-20T17:41:05.764Z,101624.07
2018-02-20T17:43:32.385Z,101622.19
2018-02-20T17:45:58.712Z,101625.95
2018-02-20T17:51:16.560Z,101624.59
2018-02-20T17:53:42.969Z,101628.94
2018-02-20T17:56:09.441Z,101630.07
2018-02-20T17:58:35.861Z,101634.30
2018-02-20T18:01:03.263Z,101631.94
2018-02-20T18:03:29.462Z,101642.98
2018-02-20T18:05:58.795Z,101643.68
2018-02-20T18:11:01.264Z,101649.73
2018-02-20T18:13:36.316Z,101645.33
2018-02-20T18:16:02.517Z,101647.67
2018-02-20T18:21:31.056Z,101650.48
2018-02-20T18:24:01.140Z,101648.56
2018-02-20T18:29:16.920Z,101643.34
2018-02-20T18:31:52.406Z,101652.12
2018-02-20T18:34:19.462Z,101652.22
2018-02-20T18:36:45.956Z,101660.53
2018-02-20T18:39:12.723Z,101664.75
2018-02-20T18:41:49.138Z,101672.72
2018-02-20T18:44:15.671Z,101674.45
2018-02-20T18:53:05.623Z,101690.42
2018-02-20T19:09:02.918Z,101694.78
2018-02-20T19:14:38.919Z,101693.31
2018-02-20T19:17:06.674Z,101697.11
2018-02-20T19:22:34.983Z,101714.41
2018-02-20T19:25:01.138Z,101714.70
2018-02-20T19:27:26.993Z,101715.19
2018-02-20T19:29:52.810Z,101717.61
2018-02-20T19:32:18.651Z,101719.80
2018-02-20T19:34:44.520Z,101712.14
2018-02-20T19:37:10.357Z,101720.67
2018-02-20T19:39:36.297Z,101715.14
2018-02-20T19:42:02.106Z,101718.24
2018-02-20T19:44:27.995Z,101726.55
2018-02-20T19:46:53.811Z,101714.32
2018-02-20T19:49:23.247Z,101716.98
2018-02-20T19:51:59.266Z,101717.55
2018-02-20T19:54:26.279Z,101714.30
2018-02-20T19:56:52.998Z,101717.58
2018-02-20T19:59:18.832Z,101719.52
2018-02-20T20:01:44.694Z,101712.89
2018-02-20T20:04:10.587Z,101717.91
2018-02-20T20:06:36.479Z,101719.13
2018-02-20T20:09:02.492Z,101726.81
2018-02-20T20:11:28.370Z,101720.59
2018-02-20T20:13:54.216Z,101725.18
2018-02-20T20:16:20.103Z,101728.73
2018-02-20T20:18:46.133Z,101721.89
2018-02-20T20:21:12.186Z,101719.81
2018-02-20T20:23:38.053Z,101726.39
2018-02-20T20:26:03.903Z,101726.81
2018-02-20T20:28:29.807Z,101725.28
2018-02-20T20:30:56.573Z,101728.84
2018-02-20T20:33:22.608Z,101725.70
2018-02-20T20:35:48.457Z,101732.75
2018-02-20T20:38:14.310Z,101732.17
2018-02-20T20:40:40.139Z,101736.45
2018-02-20T20:43:07.045Z,101737.42
2018-02-20T20:45:32.898Z,101742.39
2018-02-20T20:47:59.730Z,101743.88
2018-02-20T20:50:25.617Z,101747.58
2018-02-20T20:52:52.302Z,101746.73
2018-02-20T20:55:31.346Z,101748.06
2018-02-20T20:57:57.197Z,101748.71
2018-02-20T21:00:23.201Z,101753.05
2018-02-20T21:02:49.203Z,101748.45
2018-02-20T21:05:15.177Z,101755.52
2018-02-20T21:07:41.022Z,101758.02
2018-02-20T21:10:06.878Z,101761.23
2018-02-20T21:12:32.754Z,101764.53
2018-02-20T21:14:58.805Z,101761.52
2018-02-20T21:17:24.661Z,101765.55
2018-02-20T21:19:50.495Z,101759.36
2018-02-20T21:22:16.330Z,101763.38
2018-02-20T21:24:42.164Z,101758.34
2018-02-20T21:27:08.137Z,101766.48
2018-02-20T21:29:34.279Z,101760.28
2018-02-20T21:32:00.886Z,101761.42
2018-02-20T21:34:44.859Z,101756.39
2018-02-20T21:37:12.617Z,101750.67
2018-02-20T21:39:39.239Z,101750.03
2018-02-20T21:42:05.172Z,101753.19
2018-02-20T21:44:32.057Z,101752.42
2018-02-20T21:46:58.735Z,101749.43
2018-02-20T21:52:07.992Z,101759.70
2018-02-20T21:54:46.345Z,101763.32
2018-02-20T21:57:13.232Z,101767.83
2018-02-20T21:59:48.197Z,101769.87
2018-02-20T22:02:14.136Z,101770.67
2018-02-20T22:04:39.998Z,101769.83
2018-02-20T22:07:05.866Z,101777.97
2018-02-20T22:09:31.693Z,101773.89
2018-02-20T22:12:04.255Z,101768.27
2018-02-20T22:14:30.123Z,101775.55
2018-02-20T22:17:04.272Z,101766.31
2018-02-20T22:19:30.146Z,101780.16
2018-02-20T22:21:55.961Z,101779.02
2018-02-20T22:24:21.778Z,101780.13
2018-02-20T22:26:47.593Z,101777.92
2018-02-20T22:29:13.459Z,101775.72
2018-02-20T22:31:42.119Z,101777.50
2018-02-20T22:34:07.938Z,101775.92
2018-02-20T22:36:33.758Z,101780.67
2018-02-20T22:38:59.579Z,101786.23
2018-02-20T22:41:25.396Z,101791.06
2018-02-20T22:43:53.448Z,101790.59
2018-02-20T22:46:20.247Z,101790.53
2018-02-20T22:48:46.102Z,101787.08
2018-02-20T22:51:12.258Z,101792.84
2018-02-20T22:53:43.711Z,101785.55
2018-02-20T22:56:12.671Z,101791.48
2018-02-20T22:58:39.592Z,101794.09
2018-02-20T23:01:05.433Z,101791.61
2018-02-20T23:03:32.237Z,101797.70
2018-02-20T23:05:58.168Z,101802.87
2018-02-20T23:08:24.029Z,101796.22
2018-02-20T23:10:49.845Z,101802.38
2018-02-20T23:13:15.717Z,101800.23
2018-02-20T23:15:41.570Z,101796.77
2018-02-20T23:18:07.382Z,101794.05
2018-02-20T23:20:33.245Z,101792.51
2018-02-20T23:22:59.898Z,101790.92
2018-02-20T23:25:26.598Z,101800.30
2018-02-20T23:27:52.418Z,101799.45
2018-02-20T23:30:18.263Z,101799.79
2018-02-20T23:32:45.047Z,101800.16
2018-02-20T23:35:10.866Z,101802.22
2018-02-20T23:37:36.687Z,101803.88
2018-02-20T23:40:03.454Z,101808.06
2018-02-20T23:42:30.319Z,101806.19
2018-02-20T23:44:56.158Z,101813.86
2018-02-20T23:47:21.978Z,101814.81
2018-02-20T23:49:48.656Z,101808.19
2018-02-20T23:52:15.309Z,101812.98
2018-02-20T23:54:42.127Z,101812.23
2018-02-20T23:57:07.939Z,101820.02
2018-02-20T23:59:33.747Z,101814.77
